AirNav   Free Bose QuietComfort 20
 
 1152 users online  

53VA Horse Feathers Airport
Midland, Virginia, USA

GOING TO MIDLAND?


FAA INFORMATION EFFECTIVE 05 DECEMBER 2019

Location

FAA Identifier: 53VA
Lat/Long: 38-38-02.4350N 077-45-26.9730W
38-38.040583N 077-45.449550W
38.6340097,-77.7574925
(estimated)
Elevation: 390 ft. / 118.9 m (surveyed)
Variation: 09W (1985)
From city: 3 miles NW of MIDLAND, VA
Time zone: UTC -5 (UTC -4 during Daylight Saving Time)
Zip code: 22728

Airport Operations

Airport use: Private use. Permission required prior to landing
Activation date: 08/1986
Control tower: no
ARTCC: WASHINGTON CENTER
FSS: LEESBURG FLIGHT SERVICE STATION
Attendance: UNATNDD
Wind indicator: yes
Segmented circle: no

Airport Communications

WX AWOS-3 at HWY (4 nm SE): 120.350 (540-788-4078)
WX AWOS-3 at CJR (8 nm SW): 119.325 (540-727-0523)
WX AWOS-3PT at HEF (12 nm NE): PHONE 703-361-6160

Nearby radio navigation aids

VOR radial/distance  VOR name  Freq  Var
CSNr101/5.1CASANOVA VORTAC116.3006W
AMLr225/22.6ARMEL VOR/DME113.5008W
LDNr128/24.8LINDEN VORTAC114.3006W
BRVr322/26.1BROOKE VORTAC114.5009W
DCAr257/36.4WASHINGTON VOR/DME111.0009W

 
NDB name  Hdg/Dist  Freq  Var  ID
NAILR043/12.835110WMSQ -- ... --.-
SHANNON337/26.423710WEZF . --.. ..-.
DAVEE276/30.422309WDAA -.. .- .-
CAVERNS106/33.724509WLUA .-.. ..- .-
GEORGETOWN248/34.532309WGTN --. - -.
OXONN268/35.133211WDCA -.. -.-. .-

Airport Services

Runway Information

Runway 18/36

Dimensions: 2600 x 50 ft. / 792 x 15 m
Surface: turf
RUNWAY 18  RUNWAY 36
Traffic pattern: leftright

Airport Ownership and Management from official FAA records

Ownership: Privately-owned
Owner: FRANK R. THOMPSON
9669 GREEN RD
MIDLAND, VA 22728
Phone (540) 439-2962
Manager: FRANK R. THOMPSON
9669 GREEN RD
MIDLAND, VA 22728
Phone (540) 439-2962

Airport Operational Statistics

Aircraft based on the field: 2
Single engine airplanes: 2
    

Additional Remarks

FOR CD CTC POTOMAC APCH AT 866-709-4993.

Instrument Procedures

There are no published instrument procedures at 53VA.

Some nearby airports with instrument procedures:

KHWY - Warrenton-Fauquier Airport (4 nm SE)
KCJR - Culpeper Regional Airport (8 nm SW)
KHEF - Manassas Regional Airport/Harry P. Davis Field (12 nm NE)
KRMN - Stafford Regional Airport (20 nm SE)
2VG2 - Upperville Airport (21 nm N)
 
Loc | Ops | Rwys | IFR | FBO | Links
Com | Nav | Svcs | Stats | Notes
Area around 53VA (Horse Feathers Airport)
 
Road maps at: MapQuest Bing Google
 
Aerial photo
No photo
 
Sectional chart

 
Airport distance calculator
Flying to Horse Feathers Airport? Find the distance to fly.

From to 53VA

Sunrise and sunset
Times for 08-Dec-2019
 Local
(UTC-5)
 Zulu
(UTC)
Morning civil twilight06:4811:48
Sunrise07:1712:17
Sunset16:4921:49
Evening civil twilight17:1822:18

Current date and time
Zulu (UTC)  08-Dec-2019 13:49:11
Local (UTC-5)  08-Dec-2019 08:49:11
 
METAR
KHWY 
4nm SE 
081335Z AUTO 00000KT 10SM CLR M03/M06 A3051 RMK AO2 T10351057
KHEF 
12nm NE 
081256Z 00000KT 10SM CLR M05/M06 A3052 RMK AO2 SLP345 T10501061 FZRANO
KCJR 
19nm W 
081335Z AUTO 00000KT 10SM CLR M04/M06 A3053 RMK AO2 T10401059
TAF
KIAD 
23nm NE 
081134Z 0812/0918 00000KT P6SM FEW250 FM090900 18004KT P6SM -RADZ OVC060 FM091100 17004KT P6SM -RADZ OVC030 FM091200 17004KT P6SM -RA OVC015 FM091500 18005KT 3SM -RA OVC008 WS020/20035KT
KNYG 
24nm E 
0715/0815 36005KT 9999 SKC QNH3039INS TEMPO 0715/0718 36008G15KT BECMG 0800/0802 VRB05KT 9999 SKC QNH3041INS T08/0719Z TM03/0808Z
NOTAMs
Click for the latest NOTAMs
NOTAMs are issued by the DoD/FAA and will open in a separate window not controlled by AirNav.

 

 
 

Would you like to see your business listed on this page?

 If your business provides an interesting product or service to pilots, flight crews, aircraft, or users of the Horse Feathers Airport, you should consider listing it here.  To start the listing process, click on the button below
 
Add a business
 

Other Pages about Horse Feathers Airport

Update a link
 
Copyright © AirNav, LLC. All rights reserved. Privacy Policy  Contact